createdAt,value
2023-05-09T00:00:43.375Z,39.39
2023-05-09T00:01:43.352Z,39.37
2023-05-09T00:02:43.470Z,39.38
2023-05-09T00:03:43.317Z,39.33
2023-05-09T00:04:43.379Z,39.38
2023-05-09T00:05:43.297Z,39.35
2023-05-09T00:06:43.400Z,39.30
2023-05-09T00:07:43.355Z,39.36
2023-05-09T00:08:43.365Z,39.38
2023-05-09T00:09:43.365Z,39.31
2023-05-09T00:10:43.374Z,39.34
2023-05-09T00:11:43.388Z,39.31
2023-05-09T00:12:43.393Z,39.33
2023-05-09T00:13:43.449Z,39.38
2023-05-09T00:14:43.416Z,39.38
2023-05-09T00:15:43.432Z,39.33
2023-05-09T00:16:43.481Z,39.36
2023-05-09T00:17:43.465Z,39.35
2023-05-09T00:18:43.460Z,39.33
2023-05-09T00:19:43.485Z,39.34
2023-05-09T00:20:43.459Z,39.36
2023-05-09T00:21:43.504Z,39.32
2023-05-09T00:22:43.587Z,39.30
2023-05-09T00:23:43.514Z,39.30
2023-05-09T00:24:43.533Z,39.29
2023-05-09T00:25:43.528Z,39.39
2023-05-09T00:26:43.555Z,39.34
2023-05-09T00:27:43.601Z,39.35
2023-05-09T00:28:43.562Z,39.43
2023-05-09T00:29:43.599Z,39.40
2023-05-09T00:30:44.240Z,39.34
2023-05-09T00:31:43.674Z,39.37
2023-05-09T00:32:43.689Z,39.28
2023-05-09T00:33:43.642Z,39.34
2023-05-09T00:34:43.697Z,39.39
2023-05-09T00:35:43.691Z,39.37
2023-05-09T00:36:43.698Z,39.38
2023-05-09T00:37:43.690Z,39.36
2023-05-09T00:38:43.784Z,39.42
2023-05-09T00:39:43.733Z,39.32
2023-05-09T00:40:43.732Z,39.32
2023-05-09T00:41:43.790Z,39.32
2023-05-09T00:42:43.795Z,39.34
2023-05-09T00:43:43.756Z,39.32
2023-05-09T00:44:43.785Z,39.32
2023-05-09T00:45:43.839Z,39.32
2023-05-09T00:46:43.823Z,39.32
2023-05-09T00:47:43.871Z,39.33
2023-05-09T00:48:43.819Z,39.35
2023-05-09T00:49:43.836Z,39.31
2023-05-09T00:50:43.844Z,39.26
2023-05-09T00:51:43.861Z,39.24
2023-05-09T00:52:43.915Z,39.33
2023-05-09T00:53:43.884Z,39.24
2023-05-09T00:54:44.003Z,39.24
2023-05-09T00:55:43.945Z,39.27
2023-05-09T00:56:43.937Z,39.29
2023-05-09T00:57:43.944Z,39.27
2023-05-09T00:58:43.991Z,39.27
2023-05-09T00:59:43.968Z,39.29
2023-05-09T01:00:44.013Z,39.27
2023-05-09T01:01:44.083Z,39.27
2023-05-09T01:02:44.078Z,39.26
2023-05-09T01:03:44.134Z,39.24
2023-05-09T01:04:44.024Z,39.21
2023-05-09T01:05:44.064Z,39.25
2023-05-09T01:06:44.089Z,39.24
2023-05-09T01:07:44.101Z,39.22
2023-05-09T01:08:44.099Z,39.21
2023-05-09T01:09:44.169Z,39.24
2023-05-09T01:10:44.221Z,39.16
2023-05-09T01:11:44.334Z,39.24
2023-05-09T01:12:44.186Z,39.20
2023-05-09T01:13:44.172Z,39.17
2023-05-09T01:14:44.154Z,39.16
2023-05-09T01:15:44.168Z,39.24
2023-05-09T01:16:44.215Z,39.25
2023-05-09T01:17:44.260Z,39.25
2023-05-09T01:18:44.239Z,39.31
2023-05-09T01:19:44.246Z,39.24
2023-05-09T01:20:44.239Z,39.30
2023-05-09T01:21:44.272Z,39.27
2023-05-09T01:22:44.380Z,39.31
2023-05-09T01:23:44.360Z,39.32
2023-05-09T01:24:44.293Z,39.23
2023-05-09T01:25:44.325Z,39.26
2023-05-09T01:26:44.462Z,39.31
2023-05-09T01:27:44.339Z,39.26
2023-05-09T01:28:44.315Z,39.23
2023-05-09T01:29:44.370Z,39.22
2023-05-09T01:30:44.385Z,39.24
2023-05-09T01:31:44.462Z,39.26
2023-05-09T01:32:44.447Z,39.26
2023-05-09T01:33:44.400Z,39.24
2023-05-09T01:34:44.422Z,39.27
2023-05-09T01:35:44.403Z,39.22
2023-05-09T01:36:44.449Z,39.31
2023-05-09T01:37:44.434Z,39.25
2023-05-09T01:38:44.454Z,39.29
2023-05-09T01:39:44.433Z,39.24
2023-05-09T01:40:44.481Z,39.33
2023-05-09T01:41:44.754Z,39.25
2023-05-09T01:42:44.603Z,39.28
2023-05-09T01:43:44.606Z,39.21
2023-05-09T01:44:44.529Z,39.25
2023-05-09T01:45:44.576Z,39.28
2023-05-09T01:46:44.835Z,39.30
2023-05-09T01:47:44.610Z,39.23
2023-05-09T01:48:44.607Z,39.30
2023-05-09T01:49:44.611Z,39.25
2023-05-09T01:50:44.656Z,39.30
2023-05-09T01:51:44.614Z,39.24
2023-05-09T01:52:44.621Z,39.32
2023-05-09T01:53:44.671Z,39.30
2023-05-09T01:54:44.673Z,39.27
2023-05-09T01:55:44.693Z,39.36
2023-05-09T01:56:44.763Z,39.25
2023-05-09T01:57:44.696Z,39.27
2023-05-09T01:58:44.847Z,39.23
2023-05-09T01:59:44.808Z,39.29
2023-05-09T02:00:44.818Z,39.26
2023-05-09T02:01:45.271Z,39.27
2023-05-09T02:02:44.868Z,39.34
2023-05-09T02:03:44.808Z,39.30
2023-05-09T02:04:44.854Z,39.30
2023-05-09T02:05:44.823Z,39.29
2023-05-09T02:06:45.268Z,39.31
2023-05-09T02:07:44.800Z,39.30
2023-05-09T02:08:44.846Z,39.39
2023-05-09T02:09:44.859Z,39.27
2023-05-09T02:10:44.883Z,39.29
2023-05-09T02:11:44.882Z,39.26
2023-05-09T02:12:44.932Z,39.29
2023-05-09T02:13:44.901Z,39.27
2023-05-09T02:14:45.000Z,39.29
2023-05-09T02:15:44.933Z,39.26
2023-05-09T02:16:44.979Z,39.28
2023-05-09T02:17:45.007Z,39.22
2023-05-09T02:18:44.967Z,39.29
2023-05-09T02:19:44.995Z,39.20
2023-05-09T02:20:45.027Z,39.24
2023-05-09T02:21:45.276Z,39.25
2023-05-09T02:22:45.016Z,39.19
2023-05-09T02:23:45.023Z,39.18
2023-05-09T02:24:45.064Z,39.19
2023-05-09T02:25:45.078Z,39.17
2023-05-09T02:26:45.264Z,39.14
2023-05-09T02:27:45.090Z,39.15
2023-05-09T02:28:45.099Z,39.25
2023-05-09T02:29:45.086Z,39.19
2023-05-09T02:30:45.217Z,39.11
2023-05-09T02:31:45.169Z,39.24
2023-05-09T02:32:45.203Z,39.16
2023-05-09T02:33:45.132Z,39.20
2023-05-09T02:34:45.175Z,39.22
2023-05-09T02:35:45.159Z,39.23
2023-05-09T02:36:45.294Z,39.21
2023-05-09T02:37:45.234Z,39.23
2023-05-09T02:38:45.187Z,39.21
2023-05-09T02:39:45.215Z,39.30
2023-05-09T02:40:45.202Z,39.28
2023-05-09T02:41:45.237Z,39.20
2023-05-09T02:42:45.275Z,39.21
2023-05-09T02:43:45.253Z,39.18
2023-05-09T02:44:45.285Z,39.18
2023-05-09T02:45:45.343Z,39.17
2023-05-09T02:46:45.401Z,39.23
2023-05-09T02:47:45.817Z,39.25
2023-05-09T02:48:45.329Z,39.12
2023-05-09T02:49:45.345Z,39.26
2023-05-09T02:50:45.358Z,39.28
2023-05-09T02:51:45.396Z,39.23
2023-05-09T02:52:45.406Z,39.22
2023-05-09T02:53:45.429Z,39.23
2023-05-09T02:54:45.450Z,39.17
2023-05-09T02:55:45.409Z,39.18
2023-05-09T02:56:45.456Z,39.22
2023-05-09T02:57:45.470Z,39.17
2023-05-09T02:58:45.489Z,39.16
2023-05-09T02:59:45.454Z,39.17
2023-05-09T03:00:45.523Z,39.22
2023-05-09T03:01:45.607Z,39.17
2023-05-09T03:02:46.038Z,39.20
2023-05-09T03:03:45.694Z,39.06
2023-05-09T03:04:45.556Z,39.13
2023-05-09T03:05:45.709Z,39.16
2023-05-09T03:06:45.569Z,39.16
2023-05-09T03:07:45.574Z,39.14
2023-05-09T03:08:45.595Z,39.17
2023-05-09T03:09:45.621Z,39.22
2023-05-09T03:10:45.613Z,39.19
2023-05-09T03:11:45.616Z,39.23
2023-05-09T03:12:45.707Z,39.25
2023-05-09T03:13:45.643Z,39.22
2023-05-09T03:14:45.711Z,39.35
2023-05-09T03:15:45.713Z,39.24
2023-05-09T03:16:45.705Z,39.25
2023-05-09T03:17:45.746Z,39.26
2023-05-09T03:18:45.838Z,39.25
2023-05-09T03:19:45.770Z,39.33
2023-05-09T03:20:45.800Z,39.25
2023-05-09T03:21:45.773Z,39.25
2023-05-09T03:22:46.322Z,39.23
2023-05-09T03:23:45.811Z,39.22
2023-05-09T03:24:45.824Z,39.24
2023-05-09T03:25:45.841Z,39.22
2023-05-09T03:26:45.846Z,39.25
2023-05-09T03:27:45.885Z,39.22
2023-05-09T03:28:45.887Z,39.27
2023-05-09T03:29:45.938Z,39.24
2023-05-09T03:30:45.951Z,39.31
2023-05-09T03:31:45.995Z,39.26
2023-05-09T03:32:46.027Z,39.29
2023-05-09T03:33:45.970Z,39.29
2023-05-09T03:34:46.070Z,39.32
2023-05-09T03:35:46.015Z,39.28
2023-05-09T03:36:46.044Z,39.25
2023-05-09T03:37:46.067Z,39.23
2023-05-09T03:38:46.077Z,39.26
2023-05-09T03:39:46.085Z,39.33
2023-05-09T03:40:46.098Z,39.32
2023-05-09T03:41:46.126Z,39.27
2023-05-09T03:42:46.312Z,39.30
2023-05-09T03:43:46.200Z,39.30
2023-05-09T03:44:46.221Z,39.31
2023-05-09T03:45:46.207Z,39.25
2023-05-09T03:46:46.293Z,39.33
2023-05-09T03:47:46.325Z,39.35
2023-05-09T03:48:46.254Z,39.29
2023-05-09T03:49:46.253Z,39.32
2023-05-09T03:50:46.375Z,39.29
2023-05-09T03:51:46.318Z,39.23
2023-05-09T03:52:46.370Z,39.28
2023-05-09T03:53:46.320Z,39.27
2023-05-09T03:54:46.330Z,39.28
2023-05-09T03:55:46.324Z,39.33
2023-05-09T03:56:46.359Z,39.32
2023-05-09T03:57:46.827Z,39.33
2023-05-09T03:58:46.425Z,39.31
2023-05-09T03:59:46.436Z,39.31
2023-05-09T04:00:46.419Z,39.34
2023-05-09T04:01:46.439Z,39.37
2023-05-09T04:02:46.456Z,39.25
2023-05-09T04:03:46.486Z,39.26
2023-05-09T04:04:46.488Z,39.26
2023-05-09T04:05:46.503Z,39.26
2023-05-09T04:06:46.609Z,39.28
2023-05-09T04:07:46.827Z,39.28
2023-05-09T04:08:46.522Z,39.29
2023-05-09T04:09:46.593Z,39.25
2023-05-09T04:10:47.319Z,39.22
2023-05-09T04:11:46.622Z,39.29
2023-05-09T04:12:46.647Z,39.28
2023-05-09T04:13:46.664Z,39.32
2023-05-09T04:14:48.784Z,39.30
2023-05-09T04:15:46.682Z,39.21
2023-05-09T04:16:46.744Z,39.23
2023-05-09T04:17:46.830Z,39.23
2023-05-09T04:18:46.733Z,39.25
2023-05-09T04:19:46.785Z,39.20
2023-05-09T04:20:46.780Z,39.17
2023-05-09T04:21:46.816Z,39.24
2023-05-09T04:22:47.115Z,39.32
2023-05-09T04:23:46.858Z,39.28
2023-05-09T04:24:46.833Z,39.26
2023-05-09T04:25:46.905Z,39.22
2023-05-09T04:26:46.924Z,39.20
2023-05-09T04:27:46.889Z,39.21
2023-05-09T04:28:46.905Z,39.28
2023-05-09T04:29:46.963Z,39.19
2023-05-09T04:30:46.989Z,39.12
2023-05-09T04:31:47.111Z,39.16
2023-05-09T04:32:47.130Z,39.20
2023-05-09T04:33:47.086Z,39.20
2023-05-09T04:34:47.078Z,39.14
2023-05-09T04:35:47.091Z,39.20
2023-05-09T04:36:47.138Z,39.20
2023-05-09T04:37:47.359Z,39.26
2023-05-09T04:38:47.261Z,39.19
2023-05-09T04:39:47.169Z,39.16
2023-05-09T04:40:47.218Z,39.09
2023-05-09T04:41:47.232Z,39.22
2023-05-09T04:42:47.273Z,39.16
2023-05-09T04:43:47.283Z,39.20
2023-05-09T04:44:47.288Z,39.17
2023-05-09T04:45:47.306Z,39.23
2023-05-09T04:46:47.342Z,39.13
2023-05-09T04:47:47.914Z,39.14
2023-05-09T04:48:47.336Z,39.19
2023-05-09T04:49:47.413Z,39.17
2023-05-09T04:50:47.415Z,39.20
2023-05-09T04:51:47.490Z,39.17
2023-05-09T04:52:47.504Z,39.18
2023-05-09T04:53:47.478Z,39.14
2023-05-09T04:54:47.587Z,39.14
2023-05-09T04:55:47.604Z,39.16
2023-05-09T04:56:50.045Z,39.03
2023-05-09T04:57:47.583Z,39.09
2023-05-09T04:58:47.536Z,39.12
2023-05-09T04:59:47.572Z,39.04
2023-05-09T05:00:47.572Z,39.09
2023-05-09T05:01:47.600Z,39.12
2023-05-09T05:02:47.551Z,39.10
2023-05-09T05:03:47.534Z,39.07
2023-05-09T05:04:47.531Z,39.18
2023-05-09T05:05:47.561Z,39.02
2023-05-09T05:06:47.493Z,39.08
2023-05-09T05:07:47.505Z,39.10
2023-05-09T05:08:47.467Z,39.15
2023-05-09T05:09:47.528Z,39.05
2023-05-09T05:10:47.545Z,39.11
2023-05-09T05:11:57.805Z,39.09
2023-05-09T05:12:48.518Z,39.05
2023-05-09T05:13:47.480Z,39.08
2023-05-09T05:14:47.417Z,39.07
2023-05-09T05:15:47.479Z,39.05
2023-05-09T05:16:47.392Z,39.05
2023-05-09T05:17:47.448Z,39.10
2023-05-09T05:18:47.427Z,39.03
2023-05-09T05:19:47.392Z,39.04
2023-05-09T05:20:47.409Z,39.01
2023-05-09T05:21:47.456Z,39.09
2023-05-09T05:22:47.399Z,39.03
2023-05-09T05:23:47.349Z,39.09
2023-05-09T05:24:47.372Z,39.10
2023-05-09T05:25:47.418Z,39.06
2023-05-09T05:26:47.478Z,39.12
2023-05-09T05:27:47.367Z,39.08
2023-05-09T05:28:47.342Z,38.99
2023-05-09T05:29:47.314Z,38.99
2023-05-09T05:30:47.311Z,39.01
2023-05-09T05:31:47.456Z,39.16
2023-05-09T05:32:47.387Z,39.00
2023-05-09T05:33:47.366Z,39.04
2023-05-09T05:34:47.372Z,38.99
2023-05-09T05:35:47.425Z,39.06
2023-05-09T05:36:47.507Z,39.09
2023-05-09T05:37:49.018Z,39.02
2023-05-09T05:38:47.502Z,39.01
2023-05-09T05:39:47.501Z,39.05
2023-05-09T05:40:47.549Z,38.94
2023-05-09T05:41:47.585Z,38.90
2023-05-09T05:42:47.948Z,39.03
2023-05-09T05:43:47.664Z,38.97
2023-05-09T05:44:47.676Z,39.03
2023-05-09T05:45:47.721Z,38.96
2023-05-09T05:46:48.711Z,38.98
2023-05-09T05:47:47.769Z,39.01
2023-05-09T05:48:47.693Z,38.94
2023-05-09T05:49:47.743Z,39.05
2023-05-09T05:50:47.794Z,38.93
2023-05-09T05:51:47.792Z,38.91
2023-05-09T05:52:47.821Z,38.89
2023-05-09T05:53:47.825Z,38.90
2023-05-09T05:54:47.854Z,38.89
2023-05-09T05:55:47.885Z,38.95
2023-05-09T05:56:47.928Z,38.95
2023-05-09T05:57:48.347Z,39.04
2023-05-09T05:58:48.025Z,38.97
2023-05-09T05:59:47.978Z,38.89
2023-05-09T06:00:47.988Z,38.87
2023-05-09T06:01:48.041Z,39.11
2023-05-09T06:02:48.428Z,39.74
2023-05-09T06:03:48.173Z,40.06
2023-05-09T06:04:48.085Z,40.30
2023-05-09T06:05:48.051Z,40.58
2023-05-09T06:06:48.061Z,40.81
2023-05-09T06:07:48.071Z,41.19
2023-05-09T06:08:48.079Z,41.26
2023-05-09T06:09:48.062Z,41.44
2023-05-09T06:10:48.126Z,41.52
2023-05-09T06:11:48.125Z,41.57
2023-05-09T06:12:48.106Z,41.72
2023-05-09T06:13:48.108Z,41.72
2023-05-09T06:14:48.176Z,41.74
2023-05-09T06:15:48.087Z,41.92
2023-05-09T06:16:48.146Z,41.97
2023-05-09T06:17:48.115Z,42.03
2023-05-09T06:18:48.074Z,41.85
2023-05-09T06:19:48.846Z,41.87
2023-05-09T06:20:48.083Z,42.15
2023-05-09T06:21:48.091Z,42.17
2023-05-09T06:22:48.151Z,42.41
2023-05-09T06:24:05.955Z,42.22
2023-05-09T06:24:49.131Z,42.49
2023-05-09T06:25:48.113Z,42.42
2023-05-09T06:26:48.123Z,42.37
2023-05-09T06:27:48.082Z,42.84
2023-05-09T06:28:48.108Z,42.74
2023-05-09T06:29:48.146Z,42.92
2023-05-09T06:30:48.170Z,42.87
2023-05-09T06:31:48.156Z,42.78
2023-05-09T06:32:48.179Z,43.14
2023-05-09T06:33:48.377Z,43.07
2023-05-09T06:34:48.205Z,43.25
2023-05-09T06:35:48.234Z,43.13
2023-05-09T06:36:48.260Z,43.48
2023-05-09T06:37:49.037Z,43.15
2023-05-09T06:38:48.961Z,43.45
2023-05-09T06:39:48.427Z,43.44
2023-05-09T06:40:48.487Z,43.58
2023-05-09T06:41:48.536Z,43.50
2023-05-09T06:42:48.544Z,43.64
2023-05-09T06:43:49.863Z,43.77
2023-05-09T06:44:48.651Z,43.67
2023-05-09T06:45:48.635Z,43.78
2023-05-09T06:46:48.703Z,43.72
2023-05-09T06:47:48.730Z,43.71
2023-05-09T06:48:48.735Z,44.01
2023-05-09T06:49:48.802Z,44.08
2023-05-09T06:50:48.799Z,44.08
2023-05-09T06:51:48.845Z,44.02
2023-05-09T06:52:48.920Z,43.96
2023-05-09T06:53:48.948Z,44.01
2023-05-09T06:54:49.033Z,43.99
2023-05-09T06:55:48.984Z,43.85
2023-05-09T06:56:49.021Z,43.80
2023-05-09T06:57:49.022Z,44.04
2023-05-09T06:58:49.030Z,44.24
2023-05-09T06:59:49.072Z,44.19
2023-05-09T07:00:49.104Z,44.23
2023-05-09T07:01:49.223Z,44.30
2023-05-09T07:02:49.269Z,44.51
2023-05-09T07:03:49.148Z,44.50
2023-05-09T07:04:49.223Z,44.49
2023-05-09T07:05:49.209Z,44.49
2023-05-09T07:06:49.278Z,44.55
2023-05-09T07:07:49.289Z,44.60
2023-05-09T07:08:49.263Z,44.47
2023-05-09T07:09:52.832Z,44.73
2023-05-09T07:10:50.273Z,44.53
2023-05-09T07:11:49.254Z,44.62
2023-05-09T07:12:49.287Z,44.81
2023-05-09T07:13:49.362Z,44.76
2023-05-09T07:14:49.269Z,44.79
2023-05-09T07:15:49.261Z,44.75
2023-05-09T07:16:49.251Z,44.88
2023-05-09T07:17:49.263Z,44.79
2023-05-09T07:18:49.467Z,44.93
2023-05-09T07:19:49.202Z,44.78
2023-05-09T07:20:49.183Z,44.85
2023-05-09T07:21:49.171Z,44.84
2023-05-09T07:22:49.237Z,44.76
2023-05-09T07:23:49.190Z,44.93
2023-05-09T07:24:49.184Z,44.87
2023-05-09T07:25:49.184Z,45.34
2023-05-09T07:26:49.170Z,45.11
2023-05-09T07:27:49.165Z,45.10
2023-05-09T07:28:49.427Z,45.35
2023-05-09T07:29:49.181Z,45.25
2023-05-09T07:30:49.169Z,45.39
2023-05-09T07:31:49.207Z,45.46
2023-05-09T07:32:49.149Z,45.27
2023-05-09T07:33:49.094Z,45.41
2023-05-09T07:34:49.180Z,45.50
2023-05-09T07:35:49.121Z,45.44
2023-05-09T07:36:49.079Z,45.19
2023-05-09T07:37:49.128Z,44.98
2023-05-09T07:38:49.063Z,45.21
2023-05-09T07:39:49.081Z,45.54
2023-05-09T07:40:49.074Z,45.25
2023-05-09T07:41:49.074Z,45.69
2023-05-09T07:42:49.052Z,45.32
2023-05-09T07:43:49.036Z,45.90
2023-05-09T07:44:49.021Z,45.69
2023-05-09T07:45:49.084Z,45.36
2023-05-09T07:46:49.041Z,44.66
2023-05-09T07:47:49.072Z,43.72
2023-05-09T07:48:49.051Z,43.25
2023-05-09T07:49:49.008Z,43.26
2023-05-09T07:50:49.061Z,42.96
2023-05-09T07:51:48.960Z,42.72
2023-05-09T07:52:49.863Z,42.58
2023-05-09T07:53:48.943Z,42.70
2023-05-09T07:54:48.969Z,42.81
2023-05-09T07:55:48.965Z,42.59
2023-05-09T07:56:48.983Z,42.52
2023-05-09T07:57:48.992Z,42.58
2023-05-09T07:58:49.059Z,42.42
2023-05-09T07:59:49.059Z,42.65
2023-05-09T08:00:49.078Z,42.57
2023-05-09T08:01:49.134Z,42.61
2023-05-09T08:02:49.213Z,42.31
2023-05-09T08:03:49.508Z,42.22
2023-05-09T08:04:49.265Z,42.53
2023-05-09T08:05:49.193Z,42.53
2023-05-09T08:06:49.365Z,42.49
2023-05-09T08:07:49.262Z,42.34
2023-05-09T08:08:49.302Z,42.27
2023-05-09T08:09:49.331Z,42.47
2023-05-09T08:10:49.409Z,42.42
2023-05-09T08:11:49.347Z,42.36
2023-05-09T08:12:49.409Z,42.37
2023-05-09T08:13:49.922Z,42.34
2023-05-09T08:14:49.390Z,42.37
2023-05-09T08:15:49.464Z,42.35
2023-05-09T08:16:49.482Z,42.18
2023-05-09T08:17:49.564Z,42.16
2023-05-09T08:18:49.915Z,42.45
2023-05-09T08:19:49.538Z,42.09
2023-05-09T08:20:49.553Z,42.11
2023-05-09T08:21:49.628Z,42.12
2023-05-09T08:22:49.766Z,42.07
2023-05-09T08:23:49.630Z,42.18
2023-05-09T08:24:49.668Z,42.17
2023-05-09T08:25:49.673Z,42.35
2023-05-09T08:26:49.680Z,42.24
2023-05-09T08:27:51.009Z,42.29
2023-05-09T08:28:50.393Z,42.34
2023-05-09T08:29:49.903Z,42.45
2023-05-09T08:30:49.945Z,42.60
2023-05-09T08:31:49.988Z,42.58
2023-05-09T08:32:50.022Z,42.80
2023-05-09T08:33:50.028Z,42.83
2023-05-09T08:34:49.965Z,42.86
2023-05-09T08:35:49.981Z,42.84
2023-05-09T08:36:50.040Z,42.73
2023-05-09T08:37:50.039Z,42.39
2023-05-09T08:38:50.496Z,42.39
2023-05-09T08:39:50.098Z,42.54
2023-05-09T08:40:50.116Z,42.69
2023-05-09T08:41:50.139Z,42.79
2023-05-09T08:42:50.145Z,42.62
2023-05-09T08:43:50.181Z,42.40
2023-05-09T08:44:50.186Z,42.24
2023-05-09T08:45:50.205Z,42.23
2023-05-09T08:46:50.308Z,42.16
2023-05-09T08:47:50.297Z,42.05
2023-05-09T08:48:50.381Z,41.79
2023-05-09T08:49:50.333Z,41.65
2023-05-09T08:50:50.336Z,41.63
2023-05-09T08:51:50.330Z,41.61
2023-05-09T08:52:50.389Z,41.55
2023-05-09T08:53:50.423Z,41.36
2023-05-09T08:54:50.537Z,41.26
2023-05-09T08:55:50.434Z,41.09
2023-05-09T08:56:50.469Z,41.08
2023-05-09T08:57:50.512Z,41.03
2023-05-09T08:58:50.525Z,40.88
2023-05-09T08:59:50.556Z,40.83
2023-05-09T09:00:50.575Z,40.93
2023-05-09T09:01:50.684Z,40.90
2023-05-09T09:02:50.700Z,40.53
2023-05-09T09:03:50.923Z,40.90
2023-05-09T09:04:50.783Z,40.83
2023-05-09T09:05:50.789Z,40.98
2023-05-09T09:06:50.857Z,41.33
2023-05-09T09:07:50.865Z,41.57
2023-05-09T09:08:50.952Z,41.64
2023-05-09T09:09:50.913Z,41.68
2023-05-09T09:10:51.049Z,41.79
2023-05-09T09:11:51.018Z,41.65
2023-05-09T09:12:51.078Z,41.73
2023-05-09T09:13:51.059Z,41.80
2023-05-09T09:14:51.102Z,41.79
2023-05-09T09:15:51.108Z,41.77
2023-05-09T09:16:51.241Z,41.84
2023-05-09T09:17:51.186Z,41.99
2023-05-09T09:18:51.426Z,41.84
2023-05-09T09:19:51.254Z,42.15
2023-05-09T09:20:51.290Z,42.05
2023-05-09T09:21:51.278Z,41.96
2023-05-09T09:22:51.263Z,42.08
2023-05-09T09:23:51.264Z,42.33
2023-05-09T09:24:51.334Z,42.43
2023-05-09T09:25:51.302Z,42.41
2023-05-09T09:26:51.381Z,42.38
2023-05-09T09:27:51.310Z,42.84
2023-05-09T09:28:51.295Z,42.52
2023-05-09T09:29:51.409Z,42.42
2023-05-09T09:30:51.319Z,42.83
2023-05-09T09:31:51.334Z,42.83
2023-05-09T09:32:51.348Z,43.06
2023-05-09T09:33:51.299Z,42.63
2023-05-09T09:34:51.452Z,43.17
2023-05-09T09:35:51.361Z,42.75
2023-05-09T09:36:51.404Z,42.74
2023-05-09T09:37:51.371Z,42.91
2023-05-09T09:38:51.367Z,42.74
2023-05-09T09:39:51.397Z,43.05
2023-05-09T09:40:51.430Z,42.80
2023-05-09T09:41:51.531Z,42.62
2023-05-09T09:42:51.549Z,42.85
2023-05-09T09:43:51.615Z,42.60
2023-05-09T09:44:51.925Z,42.27
2023-05-09T09:45:51.697Z,42.40
2023-05-09T09:46:51.582Z,42.15
2023-05-09T09:47:51.639Z,42.05
2023-05-09T09:48:51.601Z,42.04
2023-05-09T09:49:51.940Z,42.06
2023-05-09T09:50:51.609Z,42.34
2023-05-09T09:51:51.606Z,42.13
2023-05-09T09:52:51.604Z,42.34
2023-05-09T09:53:51.687Z,42.32
2023-05-09T09:54:51.942Z,42.51
2023-05-09T09:55:51.697Z,42.41
2023-05-09T09:56:51.769Z,42.57
2023-05-09T09:57:51.806Z,42.67
2023-05-09T09:58:51.953Z,42.70
2023-05-09T09:59:51.919Z,42.85
2023-05-09T10:00:51.944Z,42.71
2023-05-09T10:01:52.049Z,42.54
2023-05-09T10:02:52.148Z,42.24
2023-05-09T10:03:52.102Z,42.11
2023-05-09T10:04:52.104Z,41.94
2023-05-09T10:05:52.096Z,41.76
2023-05-09T10:06:52.105Z,41.49
2023-05-09T10:07:52.103Z,41.58
2023-05-09T10:08:52.111Z,41.44
2023-05-09T10:09:52.118Z,41.62
2023-05-09T10:10:52.145Z,41.88
2023-05-09T10:11:52.113Z,41.86
2023-05-09T10:12:52.124Z,41.87
2023-05-09T10:13:52.121Z,42.07
2023-05-09T10:14:52.513Z,42.01
2023-05-09T10:15:53.981Z,42.14
2023-05-09T10:16:52.238Z,42.15
2023-05-09T10:17:52.282Z,42.14
2023-05-09T10:18:52.250Z,42.19
2023-05-09T10:19:52.433Z,41.97
2023-05-09T10:20:52.285Z,42.20
2023-05-09T10:21:52.274Z,42.22
2023-05-09T10:22:52.311Z,42.56
2023-05-09T10:23:52.438Z,42.63
2023-05-09T10:24:52.947Z,42.68
2023-05-09T10:25:52.534Z,42.60
2023-05-09T10:26:52.556Z,42.71
2023-05-09T10:27:52.633Z,42.56
2023-05-09T10:28:52.676Z,42.79
2023-05-09T10:29:52.744Z,42.64
2023-05-09T10:30:52.902Z,42.89
2023-05-09T10:31:52.944Z,42.88
2023-05-09T10:32:52.981Z,42.93
2023-05-09T10:33:52.994Z,43.10
2023-05-09T10:34:53.017Z,43.01
2023-05-09T10:35:53.103Z,42.90
2023-05-09T10:36:53.136Z,42.79
2023-05-09T10:37:53.156Z,43.18
2023-05-09T10:38:53.249Z,42.82
2023-05-09T10:39:53.323Z,43.12
2023-05-09T10:40:53.366Z,42.99
2023-05-09T10:41:53.393Z,42.89
2023-05-09T10:42:53.495Z,43.04
2023-05-09T10:43:53.553Z,42.88
2023-05-09T10:44:53.947Z,42.75
2023-05-09T10:45:53.620Z,42.88
2023-05-09T10:46:53.850Z,42.89
2023-05-09T10:47:53.845Z,42.88
2023-05-09T10:48:53.808Z,43.24
2023-05-09T10:49:53.891Z,42.98
2023-05-09T10:50:53.961Z,43.21
2023-05-09T10:51:54.028Z,43.12
2023-05-09T10:52:54.057Z,43.14
2023-05-09T10:53:54.136Z,43.14
2023-05-09T10:54:54.452Z,43.43
2023-05-09T10:55:54.195Z,43.27
2023-05-09T10:56:54.278Z,43.23
2023-05-09T10:57:54.369Z,43.30
2023-05-09T10:58:54.395Z,43.30
2023-05-09T10:59:54.968Z,43.19
2023-05-09T11:00:55.368Z,43.44
2023-05-09T11:01:54.746Z,43.49
2023-05-09T11:02:54.963Z,43.50
2023-05-09T11:03:54.834Z,43.16
2023-05-09T11:04:54.947Z,43.14
2023-05-09T11:05:54.937Z,43.02
2023-05-09T11:06:57.159Z,43.18
2023-05-09T11:07:54.937Z,43.17
2023-05-09T11:08:54.950Z,42.99
2023-05-09T11:09:54.940Z,42.99
2023-05-09T11:10:55.504Z,43.38
2023-05-09T11:11:54.907Z,42.99
2023-05-09T11:12:56.822Z,42.78
2023-05-09T11:13:54.918Z,42.67
2023-05-09T11:14:54.986Z,42.44
2023-05-09T11:15:54.872Z,42.58
2023-05-09T11:16:54.862Z,42.52
2023-05-09T11:17:54.917Z,42.32
2023-05-09T11:18:54.943Z,42.21
2023-05-09T11:19:54.970Z,41.97
2023-05-09T11:20:54.846Z,41.82
2023-05-09T11:21:54.842Z,42.02
2023-05-09T11:22:54.831Z,41.63
2023-05-09T11:23:55.343Z,41.53
2023-05-09T11:24:54.845Z,41.95
2023-05-09T11:25:54.858Z,41.89
2023-05-09T11:26:54.797Z,41.90
2023-05-09T11:27:54.826Z,41.96
2023-05-09T11:28:54.769Z,41.64
2023-05-09T11:29:54.994Z,41.58
2023-05-09T11:30:54.965Z,41.74
2023-05-09T11:31:54.885Z,42.01
2023-05-09T11:32:54.792Z,42.11
2023-05-09T11:33:54.777Z,41.85
2023-05-09T11:34:54.916Z,41.86
2023-05-09T11:35:54.762Z,41.80
2023-05-09T11:36:55.705Z,41.78
2023-05-09T11:37:54.729Z,41.66
2023-05-09T11:38:54.737Z,41.69
2023-05-09T11:39:54.955Z,41.58
2023-05-09T11:40:54.691Z,41.50
2023-05-09T11:41:54.681Z,41.49
2023-05-09T11:42:57.751Z,41.44
2023-05-09T11:43:54.665Z,41.39
2023-05-09T11:44:54.984Z,41.38
2023-05-09T11:45:54.761Z,41.36
2023-05-09T11:46:54.697Z,41.36
2023-05-09T11:47:54.778Z,41.27
2023-05-09T11:48:54.641Z,41.25
2023-05-09T11:49:54.653Z,41.24
2023-05-09T11:50:54.750Z,41.17
2023-05-09T11:51:54.634Z,41.13
2023-05-09T11:52:54.629Z,41.13
2023-05-09T11:53:54.641Z,41.08
2023-05-09T11:54:54.993Z,41.10
2023-05-09T11:55:54.578Z,41.05
2023-05-09T11:56:54.579Z,41.05
2023-05-09T11:57:54.693Z,41.03
2023-05-09T11:58:54.610Z,41.03
2023-05-09T11:59:55.011Z,41.03
2023-05-09T12:00:54.577Z,41.01
2023-05-09T12:01:54.608Z,41.00
2023-05-09T12:02:54.600Z,40.96
2023-05-09T12:03:54.618Z,40.96
2023-05-09T12:04:54.941Z,40.92
2023-05-09T12:05:54.524Z,40.91
2023-05-09T12:06:54.601Z,40.92
2023-05-09T12:07:54.528Z,40.91
2023-05-09T12:08:54.529Z,40.91
2023-05-09T12:09:54.974Z,40.87
2023-05-09T12:10:54.498Z,40.89
2023-05-09T12:11:54.493Z,40.84
2023-05-09T12:12:54.476Z,40.80
2023-05-09T12:13:54.493Z,40.82
2023-05-09T12:14:54.465Z,40.83
2023-05-09T12:15:54.455Z,40.75
2023-05-09T12:16:54.426Z,40.77
2023-05-09T12:17:54.510Z,40.79
2023-05-09T12:18:54.434Z,40.73
2023-05-09T12:19:54.431Z,40.73
2023-05-09T12:20:54.444Z,40.71
2023-05-09T12:21:54.410Z,40.69
2023-05-09T12:22:54.487Z,40.74
2023-05-09T12:23:54.369Z,40.71
2023-05-09T12:24:54.426Z,40.71
2023-05-09T12:25:54.385Z,40.71
2023-05-09T12:26:54.373Z,40.71
2023-05-09T12:27:54.348Z,40.67
2023-05-09T12:28:54.361Z,40.65
2023-05-09T12:29:55.093Z,40.63
2023-05-09T12:30:54.365Z,40.62
2023-05-09T12:31:54.440Z,40.58
2023-05-09T12:32:54.384Z,40.56
2023-05-09T12:33:54.336Z,40.55
2023-05-09T12:34:54.487Z,40.58
2023-05-09T12:35:54.703Z,40.55
2023-05-09T12:36:54.319Z,40.55
2023-05-09T12:37:54.313Z,40.58
2023-05-09T12:38:54.379Z,40.57
2023-05-09T12:39:54.456Z,40.53
2023-05-09T12:40:54.279Z,40.50
2023-05-09T12:42:01.532Z,40.53
2023-05-09T12:42:55.250Z,40.48
2023-05-09T12:43:54.285Z,40.44
2023-05-09T12:44:54.243Z,40.41
2023-05-09T12:45:54.262Z,40.48
2023-05-09T12:46:54.401Z,40.47
2023-05-09T12:47:54.310Z,40.46
2023-05-09T12:48:54.232Z,40.43
2023-05-09T12:49:54.260Z,40.46
2023-05-09T12:50:54.251Z,40.41
2023-05-09T12:51:54.204Z,40.40
2023-05-09T12:53:02.930Z,40.38